sensor_id;sensor_type;location;lat;lon;timestamp;temperature;humidity
8178;DHT22;4130;48.740;9.132;2022-09-03T00:01:28;14.10;99.90
8178;DHT22;4130;48.740;9.132;2022-09-03T00:04:02;14.10;99.90
8178;DHT22;4130;48.740;9.132;2022-09-03T00:06:38;14.30;99.90
8178;DHT22;4130;48.740;9.132;2022-09-03T00:09:12;14.30;99.90
8178;DHT22;4130;48.740;9.132;2022-09-03T00:11:46;14.30;99.90
8178;DHT22;4130;48.740;9.132;2022-09-03T00:14:19;14.50;99.90
8178;DHT22;4130;48.740;9.132;2022-09-03T00:16:49;14.40;99.90
8178;DHT22;4130;48.740;9.132;2022-09-03T00:19:20;14.40;99.90
8178;DHT22;4130;48.740;9.132;2022-09-03T00:21:52;14.50;99.90
8178;DHT22;4130;48.740;9.132;2022-09-03T00:24:23;14.50;99.90
8178;DHT22;4130;48.740;9.132;2022-09-03T00:26:54;14.50;99.90
8178;DHT22;4130;48.740;9.132;2022-09-03T00:29:24;14.50;99.90
8178;DHT22;4130;48.740;9.132;2022-09-03T00:31:56;14.60;99.90
8178;DHT22;4130;48.740;9.132;2022-09-03T00:34:28;14.50;99.90
8178;DHT22;4130;48.740;9.132;2022-09-03T00:36:57;14.50;99.90
8178;DHT22;4130;48.740;9.132;2022-09-03T00:39:26;14.60;99.90
8178;DHT22;4130;48.740;9.132;2022-09-03T00:42:04;14.60;99.90
8178;DHT22;4130;48.740;9.132;2022-09-03T00:44:59;14.60;99.90
8178;DHT22;4130;48.740;9.132;2022-09-03T00:47:36;14.60;99.90
8178;DHT22;4130;48.740;9.132;2022-09-03T00:50:10;14.70;99.90
8178;DHT22;4130;48.740;9.132;2022-09-03T00:52:54;14.70;99.90
8178;DHT22;4130;48.740;9.132;2022-09-03T00:55:33;14.70;99.90
8178;DHT22;4130;48.740;9.132;2022-09-03T00:58:28;14.70;99.90
8178;DHT22;4130;48.740;9.132;2022-09-03T01:00:56;14.70;99.90
8178;DHT22;4130;48.740;9.132;2022-09-03T01:03:33;14.80;99.90
8178;DHT22;4130;48.740;9.132;2022-09-03T01:06:12;14.80;99.90
8178;DHT22;4130;48.740;9.132;2022-09-03T01:09:02;14.80;99.90
8178;DHT22;4130;48.740;9.132;2022-09-03T01:11:38;14.80;99.90
8178;DHT22;4130;48.740;9.132;2022-09-03T01:14:19;14.80;99.90
8178;DHT22;4130;48.740;9.132;2022-09-03T01:16:58;14.80;99.90
8178;DHT22;4130;48.740;9.132;2022-09-03T01:20:01;14.80;99.90
8178;DHT22;4130;48.740;9.132;2022-09-03T01:25:43;14.90;99.90
8178;DHT22;4130;48.740;9.132;2022-09-03T01:28:38;14.90;99.90
8178;DHT22;4130;48.740;9.132;2022-09-03T01:31:15;14.90;99.90
8178;DHT22;4130;48.740;9.132;2022-09-03T01:33:51;14.90;99.90
8178;DHT22;4130;48.740;9.132;2022-09-03T01:36:25;14.90;99.90
8178;DHT22;4130;48.740;9.132;2022-09-03T01:39:00;14.90;99.90
8178;DHT22;4130;48.740;9.132;2022-09-03T01:41:41;14.80;99.90
8178;DHT22;4130;48.740;9.132;2022-09-03T01:44:58;14.80;99.90
8178;DHT22;4130;48.740;9.132;2022-09-03T01:47:37;14.80;99.90
8178;DHT22;4130;48.740;9.132;2022-09-03T01:50:23;14.80;99.90
8178;DHT22;4130;48.740;9.132;2022-09-03T01:52:54;14.70;99.90
8178;DHT22;4130;48.740;9.132;2022-09-03T01:55:30;14.70;99.90
8178;DHT22;4130;48.740;9.132;2022-09-03T01:58:01;14.70;99.90
8178;DHT22;4130;48.740;9.132;2022-09-03T02:00:34;14.70;99.90
8178;DHT22;4130;48.740;9.132;2022-09-03T02:03:07;14.70;99.90
8178;DHT22;4130;48.740;9.132;2022-09-03T02:05:35;14.70;99.90
8178;DHT22;4130;48.740;9.132;2022-09-03T02:08:05;14.80;99.90
8178;DHT22;4130;48.740;9.132;2022-09-03T02:10:38;14.80;99.90
8178;DHT22;4130;48.740;9.132;2022-09-03T02:13:08;14.70;99.90
8178;DHT22;4130;48.740;9.132;2022-09-03T02:15:40;14.70;99.90
8178;DHT22;4130;48.740;9.132;2022-09-03T02:18:12;14.70;99.90
8178;DHT22;4130;48.740;9.132;2022-09-03T02:20:40;14.60;99.90
8178;DHT22;4130;48.740;9.132;2022-09-03T02:23:08;14.60;99.90
8178;DHT22;4130;48.740;9.132;2022-09-03T02:25:37;14.60;99.90
8178;DHT22;4130;48.740;9.132;2022-09-03T02:28:06;14.60;99.90
8178;DHT22;4130;48.740;9.132;2022-09-03T02:30:34;14.60;99.90
8178;DHT22;4130;48.740;9.132;2022-09-03T02:33:03;14.50;99.90
8178;DHT22;4130;48.740;9.132;2022-09-03T02:35:30;14.50;99.90
8178;DHT22;4130;48.740;9.132;2022-09-03T02:37:56;14.40;99.90
8178;DHT22;4130;48.740;9.132;2022-09-03T02:40:34;14.30;99.90
8178;DHT22;4130;48.740;9.132;2022-09-03T02:43:02;14.10;99.90
8178;DHT22;4130;48.740;9.132;2022-09-03T02:45:29;14.00;99.90
8178;DHT22;4130;48.740;9.132;2022-09-03T02:47:58;14.00;99.90
8178;DHT22;4130;48.740;9.132;2022-09-03T02:50:27;13.90;99.90
8178;DHT22;4130;48.740;9.132;2022-09-03T02:52:54;13.80;99.90
8178;DHT22;4130;48.740;9.132;2022-09-03T02:55:21;13.70;99.90
8178;DHT22;4130;48.740;9.132;2022-09-03T02:57:48;13.60;99.90
8178;DHT22;4130;48.740;9.132;2022-09-03T03:00:14;13.60;99.90
8178;DHT22;4130;48.740;9.132;2022-09-03T03:02:42;13.50;99.90
8178;DHT22;4130;48.740;9.132;2022-09-03T03:05:16;13.50;99.90
8178;DHT22;4130;48.740;9.132;2022-09-03T03:07:46;13.50;99.90
8178;DHT22;4130;48.740;9.132;2022-09-03T03:10:12;13.50;99.90
8178;DHT22;4130;48.740;9.132;2022-09-03T03:12:39;13.60;99.90
8178;DHT22;4130;48.740;9.132;2022-09-03T03:15:07;13.60;99.90
8178;DHT22;4130;48.740;9.132;2022-09-03T03:17:34;13.60;99.90
8178;DHT22;4130;48.740;9.132;2022-09-03T03:20:01;13.60;99.90
8178;DHT22;4130;48.740;9.132;2022-09-03T03:22:27;13.40;99.90
8178;DHT22;4130;48.740;9.132;2022-09-03T03:24:56;13.40;99.90
8178;DHT22;4130;48.740;9.132;2022-09-03T03:27:22;13.30;99.90
8178;DHT22;4130;48.740;9.132;2022-09-03T03:29:49;13.20;99.90
8178;DHT22;4130;48.740;9.132;2022-09-03T03:32:16;13.20;99.90
8178;DHT22;4130;48.740;9.132;2022-09-03T03:34:43;13.20;99.90
8178;DHT22;4130;48.740;9.132;2022-09-03T03:37:10;13.20;99.90
8178;DHT22;4130;48.740;9.132;2022-09-03T03:39:36;13.20;99.90
8178;DHT22;4130;48.740;9.132;2022-09-03T03:42:05;13.10;99.90
8178;DHT22;4130;48.740;9.132;2022-09-03T03:44:32;13.10;99.90
8178;DHT22;4130;48.740;9.132;2022-09-03T03:46:58;13.20;99.90
8178;DHT22;4130;48.740;9.132;2022-09-03T03:49:25;13.20;99.90
8178;DHT22;4130;48.740;9.132;2022-09-03T03:51:52;13.30;99.90
8178;DHT22;4130;48.740;9.132;2022-09-03T03:54:19;13.30;99.90
8178;DHT22;4130;48.740;9.132;2022-09-03T03:56:46;13.40;99.90
8178;DHT22;4130;48.740;9.132;2022-09-03T03:59:15;13.40;99.90
8178;DHT22;4130;48.740;9.132;2022-09-03T04:01:42;13.50;99.90
8178;DHT22;4130;48.740;9.132;2022-09-03T04:04:09;13.50;99.90
8178;DHT22;4130;48.740;9.132;2022-09-03T04:06:36;13.50;99.90
8178;DHT22;4130;48.740;9.132;2022-09-03T04:09:02;13.60;99.90
8178;DHT22;4130;48.740;9.132;2022-09-03T04:11:29;13.50;99.90
8178;DHT22;4130;48.740;9.132;2022-09-03T04:13:56;13.60;99.90
8178;DHT22;4130;48.740;9.132;2022-09-03T04:16:25;13.50;99.90
8178;DHT22;4130;48.740;9.132;2022-09-03T04:18:54;13.70;99.90
8178;DHT22;4130;48.740;9.132;2022-09-03T04:21:22;13.70;99.90
8178;DHT22;4130;48.740;9.132;2022-09-03T04:23:50;13.70;99.90
8178;DHT22;4130;48.740;9.132;2022-09-03T04:26:18;13.70;99.90
8178;DHT22;4130;48.740;9.132;2022-09-03T04:28:46;13.70;99.90
8178;DHT22;4130;48.740;9.132;2022-09-03T04:31:14;13.70;99.90
8178;DHT22;4130;48.740;9.132;2022-09-03T04:33:42;13.70;99.90
8178;DHT22;4130;48.740;9.132;2022-09-03T04:36:11;13.60;99.90
8178;DHT22;4130;48.740;9.132;2022-09-03T04:38:39;13.70;99.90
8178;DHT22;4130;48.740;9.132;2022-09-03T04:41:08;13.60;99.90
8178;DHT22;4130;48.740;9.132;2022-09-03T04:43:35;13.70;99.90
8178;DHT22;4130;48.740;9.132;2022-09-03T04:46:04;13.70;99.90
8178;DHT22;4130;48.740;9.132;2022-09-03T04:48:34;13.70;99.90
8178;DHT22;4130;48.740;9.132;2022-09-03T04:51:04;13.80;99.90
8178;DHT22;4130;48.740;9.132;2022-09-03T04:53:32;13.80;99.90
8178;DHT22;4130;48.740;9.132;2022-09-03T04:55:59;13.80;99.90
8178;DHT22;4130;48.740;9.132;2022-09-03T04:58:26;13.90;99.90
8178;DHT22;4130;48.740;9.132;2022-09-03T05:00:53;14.00;99.90
8178;DHT22;4130;48.740;9.132;2022-09-03T05:03:20;14.00;99.90
8178;DHT22;4130;48.740;9.132;2022-09-03T05:05:56;14.10;99.90
8178;DHT22;4130;48.740;9.132;2022-09-03T05:08:24;14.20;99.90
8178;DHT22;4130;48.740;9.132;2022-09-03T05:10:57;14.20;99.90
8178;DHT22;4130;48.740;9.132;2022-09-03T05:13:25;14.30;99.90
8178;DHT22;4130;48.740;9.132;2022-09-03T05:15:57;14.40;99.90
8178;DHT22;4130;48.740;9.132;2022-09-03T05:18:24;14.40;99.90
8178;DHT22;4130;48.740;9.132;2022-09-03T05:20:57;14.50;99.90
8178;DHT22;4130;48.740;9.132;2022-09-03T05:23:26;14.50;99.90
8178;DHT22;4130;48.740;9.132;2022-09-03T05:25:56;14.60;99.90
8178;DHT22;4130;48.740;9.132;2022-09-03T05:28:24;14.70;99.90
8178;DHT22;4130;48.740;9.132;2022-09-03T05:30:59;14.80;99.90
8178;DHT22;4130;48.740;9.132;2022-09-03T05:33:26;14.90;99.90
8178;DHT22;4130;48.740;9.132;2022-09-03T05:35:53;15.00;99.90
8178;DHT22;4130;48.740;9.132;2022-09-03T05:38:20;15.00;99.90
8178;DHT22;4130;48.740;9.132;2022-09-03T05:40:48;15.10;99.90
8178;DHT22;4130;48.740;9.132;2022-09-03T05:43:15;15.10;99.90
8178;DHT22;4130;48.740;9.132;2022-09-03T05:45:42;15.30;99.90
8178;DHT22;4130;48.740;9.132;2022-09-03T05:48:09;15.40;99.90
8178;DHT22;4130;48.740;9.132;2022-09-03T05:50:36;15.50;99.90
8178;DHT22;4130;48.740;9.132;2022-09-03T05:53:02;15.60;99.90
8178;DHT22;4130;48.740;9.132;2022-09-03T05:55:29;15.70;99.90
8178;DHT22;4130;48.740;9.132;2022-09-03T05:57:58;15.80;99.90
8178;DHT22;4130;48.740;9.132;2022-09-03T06:00:24;15.80;99.90
8178;DHT22;4130;48.740;9.132;2022-09-03T06:02:52;15.80;99.90
8178;DHT22;4130;48.740;9.132;2022-09-03T06:05:19;15.90;99.90
8178;DHT22;4130;48.740;9.132;2022-09-03T06:07:46;15.90;99.90
8178;DHT22;4130;48.740;9.132;2022-09-03T06:10:14;15.90;99.90
8178;DHT22;4130;48.740;9.132;2022-09-03T06:12:42;15.90;99.90
8178;DHT22;4130;48.740;9.132;2022-09-03T06:15:15;15.90;99.90
8178;DHT22;4130;48.740;9.132;2022-09-03T06:17:42;15.80;99.90
8178;DHT22;4130;48.740;9.132;2022-09-03T06:20:09;15.90;99.90
8178;DHT22;4130;48.740;9.132;2022-09-03T06:22:36;16.00;99.90
8178;DHT22;4130;48.740;9.132;2022-09-03T06:25:04;16.10;99.90
8178;DHT22;4130;48.740;9.132;2022-09-03T06:27:30;16.30;99.90
8178;DHT22;4130;48.740;9.132;2022-09-03T06:29:57;16.50;99.90
8178;DHT22;4130;48.740;9.132;2022-09-03T06:32:25;16.60;99.90
8178;DHT22;4130;48.740;9.132;2022-09-03T06:34:53;16.80;99.90
8178;DHT22;4130;48.740;9.132;2022-09-03T06:37:20;17.00;99.90
8178;DHT22;4130;48.740;9.132;2022-09-03T06:39:47;17.20;99.90
8178;DHT22;4130;48.740;9.132;2022-09-03T06:42:14;17.30;99.90
8178;DHT22;4130;48.740;9.132;2022-09-03T06:44:42;17.40;99.90
8178;DHT22;4130;48.740;9.132;2022-09-03T06:47:10;17.30;99.90
8178;DHT22;4130;48.740;9.132;2022-09-03T06:49:38;17.40;99.90
8178;DHT22;4130;48.740;9.132;2022-09-03T06:52:04;17.40;99.90
8178;DHT22;4130;48.740;9.132;2022-09-03T06:54:31;17.50;99.90
8178;DHT22;4130;48.740;9.132;2022-09-03T06:56:58;17.50;99.90
8178;DHT22;4130;48.740;9.132;2022-09-03T06:59:25;17.60;99.90
8178;DHT22;4130;48.740;9.132;2022-09-03T07:01:52;17.60;99.90
8178;DHT22;4130;48.740;9.132;2022-09-03T07:04:19;17.60;99.90
8178;DHT22;4130;48.740;9.132;2022-09-03T07:06:50;17.70;99.90
8178;DHT22;4130;48.740;9.132;2022-09-03T07:09:17;17.70;99.90
8178;DHT22;4130;48.740;9.132;2022-09-03T07:11:44;17.70;99.90
8178;DHT22;4130;48.740;9.132;2022-09-03T07:14:15;17.80;99.90
8178;DHT22;4130;48.740;9.132;2022-09-03T07:16:42;17.90;99.90
8178;DHT22;4130;48.740;9.132;2022-09-03T07:19:10;18.00;99.90
8178;DHT22;4130;48.740;9.132;2022-09-03T07:21:38;18.10;99.90
8178;DHT22;4130;48.740;9.132;2022-09-03T07:24:07;18.20;99.90
8178;DHT22;4130;48.740;9.132;2022-09-03T07:26:37;18.30;99.90
8178;DHT22;4130;48.740;9.132;2022-09-03T07:29:05;18.50;99.90
8178;DHT22;4130;48.740;9.132;2022-09-03T07:31:35;18.60;99.90
8178;DHT22;4130;48.740;9.132;2022-09-03T07:34:04;18.80;99.90
8178;DHT22;4130;48.740;9.132;2022-09-03T07:36:37;18.90;99.90
8178;DHT22;4130;48.740;9.132;2022-09-03T07:39:08;19.00;99.90
8178;DHT22;4130;48.740;9.132;2022-09-03T07:41:35;19.20;99.90
8178;DHT22;4130;48.740;9.132;2022-09-03T07:44:03;19.40;99.90
8178;DHT22;4130;48.740;9.132;2022-09-03T07:46:32;19.50;99.90
8178;DHT22;4130;48.740;9.132;2022-09-03T07:49:02;19.70;99.90
8178;DHT22;4130;48.740;9.132;2022-09-03T07:51:31;19.70;99.90
8178;DHT22;4130;48.740;9.132;2022-09-03T07:54:01;19.90;99.90
8178;DHT22;4130;48.740;9.132;2022-09-03T07:56:30;19.90;99.90
8178;DHT22;4130;48.740;9.132;2022-09-03T07:58:57;19.80;99.90
8178;DHT22;4130;48.740;9.132;2022-09-03T08:01:26;19.80;99.90
8178;DHT22;4130;48.740;9.132;2022-09-03T08:03:55;19.90;99.90
8178;DHT22;4130;48.740;9.132;2022-09-03T08:06:24;20.00;99.90
8178;DHT22;4130;48.740;9.132;2022-09-03T08:08:54;20.20;99.90
8178;DHT22;4130;48.740;9.132;2022-09-03T08:11:22;20.40;99.90
8178;DHT22;4130;48.740;9.132;2022-09-03T08:13:55;20.50;99.90
8178;DHT22;4130;48.740;9.132;2022-09-03T08:16:26;20.60;99.90
8178;DHT22;4130;48.740;9.132;2022-09-03T08:18:53;20.80;99.90
8178;DHT22;4130;48.740;9.132;2022-09-03T08:21:22;20.90;99.90
8178;DHT22;4130;48.740;9.132;2022-09-03T08:23:50;21.00;99.90
8178;DHT22;4130;48.740;9.132;2022-09-03T08:26:20;21.20;99.90
8178;DHT22;4130;48.740;9.132;2022-09-03T08:28:47;21.50;99.90
8178;DHT22;4130;48.740;9.132;2022-09-03T08:31:17;21.60;99.90
8178;DHT22;4130;48.740;9.132;2022-09-03T08:33:46;22.00;99.90
8178;DHT22;4130;48.740;9.132;2022-09-03T08:36:15;22.30;99.90
8178;DHT22;4130;48.740;9.132;2022-09-03T08:38:43;22.60;99.90
8178;DHT22;4130;48.740;9.132;2022-09-03T08:41:13;22.70;99.90
8178;DHT22;4130;48.740;9.132;2022-09-03T08:44:05;23.00;99.90
8178;DHT22;4130;48.740;9.132;2022-09-03T08:46:46;23.40;99.90
8178;DHT22;4130;48.740;9.132;2022-09-03T08:49:18;23.30;99.90
8178;DHT22;4130;48.740;9.132;2022-09-03T08:51:49;23.20;99.90
8178;DHT22;4130;48.740;9.132;2022-09-03T08:54:18;23.20;99.90
8178;DHT22;4130;48.740;9.132;2022-09-03T08:56:45;23.00;99.90
8178;DHT22;4130;48.740;9.132;2022-09-03T08:59:13;23.00;99.90
8178;DHT22;4130;48.740;9.132;2022-09-03T09:01:54;23.20;99.90
8178;DHT22;4130;48.740;9.132;2022-09-03T09:04:31;23.10;99.90
8178;DHT22;4130;48.740;9.132;2022-09-03T09:07:08;23.00;99.90
8178;DHT22;4130;48.740;9.132;2022-09-03T09:09:43;22.80;99.90
8178;DHT22;4130;48.740;9.132;2022-09-03T09:12:20;22.60;99.90
8178;DHT22;4130;48.740;9.132;2022-09-03T09:14:56;22.60;99.90
8178;DHT22;4130;48.740;9.132;2022-09-03T09:17:42;22.60;99.90
8178;DHT22;4130;48.740;9.132;2022-09-03T09:20:20;22.50;99.90
8178;DHT22;4130;48.740;9.132;2022-09-03T09:22:53;22.30;99.90
8178;DHT22;4130;48.740;9.132;2022-09-03T09:25:22;22.20;99.90
8178;DHT22;4130;48.740;9.132;2022-09-03T09:27:55;22.30;99.90
8178;DHT22;4130;48.740;9.132;2022-09-03T09:30:24;22.60;99.90
8178;DHT22;4130;48.740;9.132;2022-09-03T09:32:52;22.80;99.90
8178;DHT22;4130;48.740;9.132;2022-09-03T09:35:21;23.40;99.90
8178;DHT22;4130;48.740;9.132;2022-09-03T09:37:49;24.00;99.90
8178;DHT22;4130;48.740;9.132;2022-09-03T09:40:25;24.60;99.90
8178;DHT22;4130;48.740;9.132;2022-09-03T09:43:08;25.40;99.90
8178;DHT22;4130;48.740;9.132;2022-09-03T09:45:37;26.10;99.90
8178;DHT22;4130;48.740;9.132;2022-09-03T09:48:12;26.40;99.40
8178;DHT22;4130;48.740;9.132;2022-09-03T09:50:41;26.80;99.10
8178;DHT22;4130;48.740;9.132;2022-09-03T09:53:09;27.00;98.50
8178;DHT22;4130;48.740;9.132;2022-09-03T09:55:51;26.70;97.80
8178;DHT22;4130;48.740;9.132;2022-09-03T09:58:20;26.60;97.80
8178;DHT22;4130;48.740;9.132;2022-09-03T10:00:59;26.20;97.90
8178;DHT22;4130;48.740;9.132;2022-09-03T10:03:30;25.60;98.20
8178;DHT22;4130;48.740;9.132;2022-09-03T10:06:07;25.30;98.20
8178;DHT22;4130;48.740;9.132;2022-09-03T10:08:53;25.00;97.90
8178;DHT22;4130;48.740;9.132;2022-09-03T10:11:33;24.70;98.80
8178;DHT22;4130;48.740;9.132;2022-09-03T10:14:07;24.40;98.80
8178;DHT22;4130;48.740;9.132;2022-09-03T10:16:38;24.50;99.00
8178;DHT22;4130;48.740;9.132;2022-09-03T10:19:12;24.30;98.60
8178;DHT22;4130;48.740;9.132;2022-09-03T10:21:46;24.20;98.40
8178;DHT22;4130;48.740;9.132;2022-09-03T10:24:32;24.20;98.90
8178;DHT22;4130;48.740;9.132;2022-09-03T10:27:05;24.20;98.90
8178;DHT22;4130;48.740;9.132;2022-09-03T10:29:34;24.00;98.80
8178;DHT22;4130;48.740;9.132;2022-09-03T10:32:16;23.90;99.20
8178;DHT22;4130;48.740;9.132;2022-09-03T10:34:53;23.90;98.40
8178;DHT22;4130;48.740;9.132;2022-09-03T10:37:34;24.10;99.40
8178;DHT22;4130;48.740;9.132;2022-09-03T10:40:22;24.40;98.20
8178;DHT22;4130;48.740;9.132;2022-09-03T10:43:18;24.40;98.10
8178;DHT22;4130;48.740;9.132;2022-09-03T10:45:54;24.70;98.80
8178;DHT22;4130;48.740;9.132;2022-09-03T10:48:42;24.60;98.30
8178;DHT22;4130;48.740;9.132;2022-09-03T10:51:17;25.00;97.90
8178;DHT22;4130;48.740;9.132;2022-09-03T10:53:57;25.20;98.10
8178;DHT22;4130;48.740;9.132;2022-09-03T10:56:31;25.40;98.10
8178;DHT22;4130;48.740;9.132;2022-09-03T10:59:15;25.20;97.60
8178;DHT22;4130;48.740;9.132;2022-09-03T11:01:55;25.20;97.90
8178;DHT22;4130;48.740;9.132;2022-09-03T11:04:40;25.20;97.40
8178;DHT22;4130;48.740;9.132;2022-09-03T11:07:12;25.20;96.70
8178;DHT22;4130;48.740;9.132;2022-09-03T11:09:42;24.70;97.00
8178;DHT22;4130;48.740;9.132;2022-09-03T11:12:12;24.40;97.60
8178;DHT22;4130;48.740;9.132;2022-09-03T11:14:51;24.30;98.40
8178;DHT22;4130;48.740;9.132;2022-09-03T11:17:22;24.00;98.20
8178;DHT22;4130;48.740;9.132;2022-09-03T11:19:54;24.00;98.60
8178;DHT22;4130;48.740;9.132;2022-09-03T11:22:25;24.10;98.60
8178;DHT22;4130;48.740;9.132;2022-09-03T11:24:56;24.10;98.70
8178;DHT22;4130;48.740;9.132;2022-09-03T11:27:31;24.30;97.80
8178;DHT22;4130;48.740;9.132;2022-09-03T11:30:04;24.20;97.90
8178;DHT22;4130;48.740;9.132;2022-09-03T11:32:40;24.10;98.30
8178;DHT22;4130;48.740;9.132;2022-09-03T11:35:13;24.10;98.40
8178;DHT22;4130;48.740;9.132;2022-09-03T11:37:50;24.10;98.20
8178;DHT22;4130;48.740;9.132;2022-09-03T11:40:18;24.00;98.20
8178;DHT22;4130;48.740;9.132;2022-09-03T11:42:46;23.90;98.20
8178;DHT22;4130;48.740;9.132;2022-09-03T11:45:21;23.60;98.10
8178;DHT22;4130;48.740;9.132;2022-09-03T11:47:49;23.40;98.70
8178;DHT22;4130;48.740;9.132;2022-09-03T11:50:20;23.20;99.40
8178;DHT22;4130;48.740;9.132;2022-09-03T11:52:49;23.10;99.80
8178;DHT22;4130;48.740;9.132;2022-09-03T11:55:25;22.90;99.50
8178;DHT22;4130;48.740;9.132;2022-09-03T11:57:55;22.60;99.90
8178;DHT22;4130;48.740;9.132;2022-09-03T12:00:23;22.40;99.80
8178;DHT22;4130;48.740;9.132;2022-09-03T12:02:55;22.20;99.90
8178;DHT22;4130;48.740;9.132;2022-09-03T12:05:29;22.00;99.90
8178;DHT22;4130;48.740;9.132;2022-09-03T12:08:37;21.60;99.90
8178;DHT22;4130;48.740;9.132;2022-09-03T12:11:21;21.20;99.90
8178;DHT22;4130;48.740;9.132;2022-09-03T12:13:53;20.70;99.90
8178;DHT22;4130;48.740;9.132;2022-09-03T12:16:50;20.40;99.90
8178;DHT22;4130;48.740;9.132;2022-09-03T12:19:26;20.10;99.90
8178;DHT22;4130;48.740;9.132;2022-09-03T12:21:55;19.80;99.90
8178;DHT22;4130;48.740;9.132;2022-09-03T12:24:25;19.60;99.90
8178;DHT22;4130;48.740;9.132;2022-09-03T12:26:57;19.40;99.90
8178;DHT22;4130;48.740;9.132;2022-09-03T12:29:26;19.00;99.90
8178;DHT22;4130;48.740;9.132;2022-09-03T12:31:54;18.80;99.90
8178;DHT22;4130;48.740;9.132;2022-09-03T12:34:22;18.40;99.90
8178;DHT22;4130;48.740;9.132;2022-09-03T12:36:51;18.10;99.90
8178;DHT22;4130;48.740;9.132;2022-09-03T12:39:19;17.80;99.90
8178;DHT22;4130;48.740;9.132;2022-09-03T12:42:00;17.40;99.90
8178;DHT22;4130;48.740;9.132;2022-09-03T12:44:30;17.20;99.90
8178;DHT22;4130;48.740;9.132;2022-09-03T12:47:02;17.00;99.90
8178;DHT22;4130;48.740;9.132;2022-09-03T12:49:34;16.90;99.90
8178;DHT22;4130;48.740;9.132;2022-09-03T12:52:04;16.80;99.90
8178;DHT22;4130;48.740;9.132;2022-09-03T12:54:33;16.70;99.90
8178;DHT22;4130;48.740;9.132;2022-09-03T12:57:04;16.60;99.90
8178;DHT22;4130;48.740;9.132;2022-09-03T12:59:33;16.70;99.90
8178;DHT22;4130;48.740;9.132;2022-09-03T13:02:03;16.70;99.90
8178;DHT22;4130;48.740;9.132;2022-09-03T13:04:34;16.80;99.90
8178;DHT22;4130;48.740;9.132;2022-09-03T13:07:04;16.90;99.90
8178;DHT22;4130;48.740;9.132;2022-09-03T13:09:36;17.00;99.90
8178;DHT22;4130;48.740;9.132;2022-09-03T13:12:05;17.00;99.90
8178;DHT22;4130;48.740;9.132;2022-09-03T13:14:41;17.10;99.90
8178;DHT22;4130;48.740;9.132;2022-09-03T13:17:20;17.20;99.90
8178;DHT22;4130;48.740;9.132;2022-09-03T13:20:04;17.30;99.90
8178;DHT22;4130;48.740;9.132;2022-09-03T13:22:45;17.40;99.90
8178;DHT22;4130;48.740;9.132;2022-09-03T13:25:24;17.70;99.90
8178;DHT22;4130;48.740;9.132;2022-09-03T13:27:58;17.80;99.90
8178;DHT22;4130;48.740;9.132;2022-09-03T13:30:31;17.90;99.90
8178;DHT22;4130;48.740;9.132;2022-09-03T13:33:02;18.10;99.90
8178;DHT22;4130;48.740;9.132;2022-09-03T13:35:34;18.10;99.90
8178;DHT22;4130;48.740;9.132;2022-09-03T13:38:08;18.20;99.90
8178;DHT22;4130;48.740;9.132;2022-09-03T13:40:41;18.30;99.90
8178;DHT22;4130;48.740;9.132;2022-09-03T13:43:22;18.30;99.90
8178;DHT22;4130;48.740;9.132;2022-09-03T13:45:54;18.30;99.90
8178;DHT22;4130;48.740;9.132;2022-09-03T13:48:27;18.50;99.90
8178;DHT22;4130;48.740;9.132;2022-09-03T13:51:18;18.70;99.90
8178;DHT22;4130;48.740;9.132;2022-09-03T13:53:56;19.00;99.90
8178;DHT22;4130;48.740;9.132;2022-09-03T13:56:34;19.30;99.90
8178;DHT22;4130;48.740;9.132;2022-09-03T13:59:08;19.60;99.90
8178;DHT22;4130;48.740;9.132;2022-09-03T14:01:51;19.90;99.90
8178;DHT22;4130;48.740;9.132;2022-09-03T14:04:26;20.00;99.90
8178;DHT22;4130;48.740;9.132;2022-09-03T14:07:00;20.20;99.90
8178;DHT22;4130;48.740;9.132;2022-09-03T14:09:34;20.30;99.90
8178;DHT22;4130;48.740;9.132;2022-09-03T14:12:12;20.60;99.90
8178;DHT22;4130;48.740;9.132;2022-09-03T14:14:52;20.70;99.90
8178;DHT22;4130;48.740;9.132;2022-09-03T14:17:29;21.40;99.90
8178;DHT22;4130;48.740;9.132;2022-09-03T14:20:01;22.40;99.90
8178;DHT22;4130;48.740;9.132;2022-09-03T14:22:33;23.30;99.90
8178;DHT22;4130;48.740;9.132;2022-09-03T14:25:10;23.80;99.90
8178;DHT22;4130;48.740;9.132;2022-09-03T14:27:39;23.40;99.90
8178;DHT22;4130;48.740;9.132;2022-09-03T14:30:19;23.00;99.90
8178;DHT22;4130;48.740;9.132;2022-09-03T14:32:55;22.60;99.90
8178;DHT22;4130;48.740;9.132;2022-09-03T14:35:41;22.00;99.90
8178;DHT22;4130;48.740;9.132;2022-09-03T14:38:29;21.60;99.90
8178;DHT22;4130;48.740;9.132;2022-09-03T14:41:04;21.30;99.90
8178;DHT22;4130;48.740;9.132;2022-09-03T14:49:40;20.90;99.90
8178;DHT22;4130;48.740;9.132;2022-09-03T14:52:28;20.90;99.90
8178;DHT22;4130;48.740;9.132;2022-09-03T14:55:09;21.00;99.90
8178;DHT22;4130;48.740;9.132;2022-09-03T14:57:50;21.20;99.90
8178;DHT22;4130;48.740;9.132;2022-09-03T15:00:20;21.30;99.90
8178;DHT22;4130;48.740;9.132;2022-09-03T15:06:03;21.50;99.90
8178;DHT22;4130;48.740;9.132;2022-09-03T15:08:42;21.60;99.90
8178;DHT22;4130;48.740;9.132;2022-09-03T15:11:15;21.60;99.90
8178;DHT22;4130;48.740;9.132;2022-09-03T15:13:46;21.70;99.90
8178;DHT22;4130;48.740;9.132;2022-09-03T15:16:26;21.90;99.90
8178;DHT22;4130;48.740;9.132;2022-09-03T15:19:14;22.10;99.90
8178;DHT22;4130;48.740;9.132;2022-09-03T15:21:53;22.20;99.90
8178;DHT22;4130;48.740;9.132;2022-09-03T15:24:35;22.20;99.90
8178;DHT22;4130;48.740;9.132;2022-09-03T15:27:13;22.30;99.90
8178;DHT22;4130;48.740;9.132;2022-09-03T15:29:59;22.10;99.90
8178;DHT22;4130;48.740;9.132;2022-09-03T15:32:45;22.10;99.90
8178;DHT22;4130;48.740;9.132;2022-09-03T15:35:31;22.30;99.90
8178;DHT22;4130;48.740;9.132;2022-09-03T15:38:01;22.50;99.90
8178;DHT22;4130;48.740;9.132;2022-09-03T15:40:32;22.50;99.90
8178;DHT22;4130;48.740;9.132;2022-09-03T15:43:05;22.50;99.90
8178;DHT22;4130;48.740;9.132;2022-09-03T15:45:37;22.40;99.90
8178;DHT22;4130;48.740;9.132;2022-09-03T15:48:12;22.10;99.90
8178;DHT22;4130;48.740;9.132;2022-09-03T15:50:51;22.00;99.90
8178;DHT22;4130;48.740;9.132;2022-09-03T15:53:28;21.60;99.90
8178;DHT22;4130;48.740;9.132;2022-09-03T15:56:04;21.30;99.90
8178;DHT22;4130;48.740;9.132;2022-09-03T15:58:36;21.20;99.90
8178;DHT22;4130;48.740;9.132;2022-09-03T16:01:10;21.10;99.90
8178;DHT22;4130;48.740;9.132;2022-09-03T16:03:46;21.20;99.90
8178;DHT22;4130;48.740;9.132;2022-09-03T16:06:30;21.30;99.90
8178;DHT22;4130;48.740;9.132;2022-09-03T16:09:07;21.40;99.90
8178;DHT22;4130;48.740;9.132;2022-09-03T16:11:51;21.30;99.90
8178;DHT22;4130;48.740;9.132;2022-09-03T16:14:24;21.20;99.90
8178;DHT22;4130;48.740;9.132;2022-09-03T16:16:58;21.00;99.90
8178;DHT22;4130;48.740;9.132;2022-09-03T16:19:30;20.80;99.90
8178;DHT22;4130;48.740;9.132;2022-09-03T16:22:05;20.80;99.90
8178;DHT22;4130;48.740;9.132;2022-09-03T16:24:37;20.80;99.90
8178;DHT22;4130;48.740;9.132;2022-09-03T16:27:09;20.70;99.90
8178;DHT22;4130;48.740;9.132;2022-09-03T16:29:39;20.80;99.90
8178;DHT22;4130;48.740;9.132;2022-09-03T16:32:20;20.70;99.90
8178;DHT22;4130;48.740;9.132;2022-09-03T16:35:01;20.60;99.90
8178;DHT22;4130;48.740;9.132;2022-09-03T16:37:37;20.60;99.90
8178;DHT22;4130;48.740;9.132;2022-09-03T16:40:13;20.70;99.90
8178;DHT22;4130;48.740;9.132;2022-09-03T16:42:49;20.70;99.90
8178;DHT22;4130;48.740;9.132;2022-09-03T16:45:24;20.70;99.90
8178;DHT22;4130;48.740;9.132;2022-09-03T16:48:10;20.60;99.90
8178;DHT22;4130;48.740;9.132;2022-09-03T16:50:54;20.50;99.90